sensor_id;sensor_type;location;lat;lon;timestamp;temperature;humidity
46492;DHT22;32206;51.446;6.792;2023-04-23T00:00:11;11.10;99.90
46492;DHT22;32206;51.446;6.792;2023-04-23T00:02:38;11.10;99.90
46492;DHT22;32206;51.446;6.792;2023-04-23T00:05:05;11.10;99.90
46492;DHT22;32206;51.446;6.792;2023-04-23T00:07:34;11.10;99.90
46492;DHT22;32206;51.446;6.792;2023-04-23T00:13:22;11.00;99.90
46492;DHT22;32206;51.446;6.792;2023-04-23T00:15:48;11.00;99.90
46492;DHT22;32206;51.446;6.792;2023-04-23T00:18:14;11.00;99.90
46492;DHT22;32206;51.446;6.792;2023-04-23T00:20:41;10.90;99.90
46492;DHT22;32206;51.446;6.792;2023-04-23T00:23:08;10.90;99.90
46492;DHT22;32206;51.446;6.792;2023-04-23T00:25:33;10.90;99.90
46492;DHT22;32206;51.446;6.792;2023-04-23T00:27:59;10.90;99.90
46492;DHT22;32206;51.446;6.792;2023-04-23T00:37:09;11.00;99.90
46492;DHT22;32206;51.446;6.792;2023-04-23T00:43:22;11.00;99.90
46492;DHT22;32206;51.446;6.792;2023-04-23T00:52:33;11.00;99.90
46492;DHT22;32206;51.446;6.792;2023-04-23T00:55:00;10.90;99.90
46492;DHT22;32206;51.446;6.792;2023-04-23T00:57:26;10.90;99.90
46492;DHT22;32206;51.446;6.792;2023-04-23T00:59:52;10.90;99.90
46492;DHT22;32206;51.446;6.792;2023-04-23T01:02:20;10.90;99.90
46492;DHT22;32206;51.446;6.792;2023-04-23T01:04:47;10.90;99.90
46492;DHT22;32206;51.446;6.792;2023-04-23T01:07:16;10.90;99.90
46492;DHT22;32206;51.446;6.792;2023-04-23T01:10:15;10.90;99.90
46492;DHT22;32206;51.446;6.792;2023-04-23T01:12:42;10.80;99.90
46492;DHT22;32206;51.446;6.792;2023-04-23T01:15:08;10.80;99.90
46492;DHT22;32206;51.446;6.792;2023-04-23T01:24:18;10.70;99.90
46492;DHT22;32206;51.446;6.792;2023-04-23T01:26:44;10.70;99.90
46492;DHT22;32206;51.446;6.792;2023-04-23T01:29:10;10.70;99.90
46492;DHT22;32206;51.446;6.792;2023-04-23T01:31:36;10.70;99.90
46492;DHT22;32206;51.446;6.792;2023-04-23T01:34:02;10.60;99.90
46492;DHT22;32206;51.446;6.792;2023-04-23T01:36:27;10.60;99.90
46492;DHT22;32206;51.446;6.792;2023-04-23T01:38:53;10.50;99.90
46492;DHT22;32206;51.446;6.792;2023-04-23T01:41:19;10.60;99.90
46492;DHT22;32206;51.446;6.792;2023-04-23T01:43:45;10.50;99.90
46492;DHT22;32206;51.446;6.792;2023-04-23T01:46:11;10.50;99.90
46492;DHT22;32206;51.446;6.792;2023-04-23T01:48:38;10.50;99.90
46492;DHT22;32206;51.446;6.792;2023-04-23T01:51:03;10.50;99.90
46492;DHT22;32206;51.446;6.792;2023-04-23T01:53:30;10.50;99.90
46492;DHT22;32206;51.446;6.792;2023-04-23T01:59:17;10.40;99.90
46492;DHT22;32206;51.446;6.792;2023-04-23T02:01:44;10.40;99.90
46492;DHT22;32206;51.446;6.792;2023-04-23T02:04:12;10.50;99.90
46492;DHT22;32206;51.446;6.792;2023-04-23T02:06:38;10.50;99.90
46492;DHT22;32206;51.446;6.792;2023-04-23T02:15:48;10.50;99.90
46492;DHT22;32206;51.446;6.792;2023-04-23T02:18:14;10.50;99.90
46492;DHT22;32206;51.446;6.792;2023-04-23T02:20:39;10.40;99.90
46492;DHT22;32206;51.446;6.792;2023-04-23T02:23:09;10.40;99.90
46492;DHT22;32206;51.446;6.792;2023-04-23T02:29:00;10.40;99.90
46492;DHT22;32206;51.446;6.792;2023-04-23T02:31:25;10.40;99.90
46492;DHT22;32206;51.446;6.792;2023-04-23T02:33:51;10.30;99.90
46492;DHT22;32206;51.446;6.792;2023-04-23T02:43:13;10.30;99.90
46492;DHT22;32206;51.446;6.792;2023-04-23T02:45:38;10.30;99.90
46492;DHT22;32206;51.446;6.792;2023-04-23T02:51:26;10.30;99.90
46492;DHT22;32206;51.446;6.792;2023-04-23T02:53:52;10.20;99.90
46492;DHT22;32206;51.446;6.792;2023-04-23T02:56:18;10.20;99.90
46492;DHT22;32206;51.446;6.792;2023-04-23T02:58:44;10.20;99.90
46492;DHT22;32206;51.446;6.792;2023-04-23T03:01:09;10.20;99.90
46492;DHT22;32206;51.446;6.792;2023-04-23T03:03:35;10.20;99.90
46492;DHT22;32206;51.446;6.792;2023-04-23T03:06:01;10.10;99.90
46492;DHT22;32206;51.446;6.792;2023-04-23T03:08:27;10.10;99.90
46492;DHT22;32206;51.446;6.792;2023-04-23T03:10:53;10.20;99.90
46492;DHT22;32206;51.446;6.792;2023-04-23T03:16:46;10.20;99.90
46492;DHT22;32206;51.446;6.792;2023-04-23T03:19:14;10.20;99.90
46492;DHT22;32206;51.446;6.792;2023-04-23T03:21:39;10.20;99.90
46492;DHT22;32206;51.446;6.792;2023-04-23T03:24:05;10.20;99.90
46492;DHT22;32206;51.446;6.792;2023-04-23T03:26:31;10.20;99.90
46492;DHT22;32206;51.446;6.792;2023-04-23T03:28:56;10.30;99.90
46492;DHT22;32206;51.446;6.792;2023-04-23T03:31:22;10.30;99.90
46492;DHT22;32206;51.446;6.792;2023-04-23T03:33:48;10.30;99.90
46492;DHT22;32206;51.446;6.792;2023-04-23T03:36:13;10.30;99.90
46492;DHT22;32206;51.446;6.792;2023-04-23T03:38:40;10.20;99.90
46492;DHT22;32206;51.446;6.792;2023-04-23T03:44:27;10.20;99.90
46492;DHT22;32206;51.446;6.792;2023-04-23T03:50:43;10.30;99.90
46492;DHT22;32206;51.446;6.792;2023-04-23T03:53:09;10.30;99.90
46492;DHT22;32206;51.446;6.792;2023-04-23T03:55:35;10.30;99.90
46492;DHT22;32206;51.446;6.792;2023-04-23T03:58:02;10.30;99.90
46492;DHT22;32206;51.446;6.792;2023-04-23T04:00:29;10.20;99.90
46492;DHT22;32206;51.446;6.792;2023-04-23T04:03:26;10.20;99.90
46492;DHT22;32206;51.446;6.792;2023-04-23T04:05:51;10.20;99.90
46492;DHT22;32206;51.446;6.792;2023-04-23T04:08:17;10.20;99.90
46492;DHT22;32206;51.446;6.792;2023-04-23T04:10:42;10.20;99.90
46492;DHT22;32206;51.446;6.792;2023-04-23T04:13:08;10.20;99.90
46492;DHT22;32206;51.446;6.792;2023-04-23T04:15:34;10.20;99.90
46492;DHT22;32206;51.446;6.792;2023-04-23T04:24:44;10.10;99.90
46492;DHT22;32206;51.446;6.792;2023-04-23T04:27:12;10.10;99.90
46492;DHT22;32206;51.446;6.792;2023-04-23T04:29:38;10.10;99.90
46492;DHT22;32206;51.446;6.792;2023-04-23T04:32:06;10.10;99.90
46492;DHT22;32206;51.446;6.792;2023-04-23T04:34:32;10.10;99.90
46492;DHT22;32206;51.446;6.792;2023-04-23T04:36:57;10.10;99.90
46492;DHT22;32206;51.446;6.792;2023-04-23T04:39:23;10.10;99.90
46492;DHT22;32206;51.446;6.792;2023-04-23T04:41:49;10.10;99.90
46492;DHT22;32206;51.446;6.792;2023-04-23T04:44:15;10.10;99.90
46492;DHT22;32206;51.446;6.792;2023-04-23T04:46:41;10.10;99.90
46492;DHT22;32206;51.446;6.792;2023-04-23T04:49:08;10.10;99.90
46492;DHT22;32206;51.446;6.792;2023-04-23T04:51:36;10.10;99.90
46492;DHT22;32206;51.446;6.792;2023-04-23T04:54:03;10.10;99.90
46492;DHT22;32206;51.446;6.792;2023-04-23T05:00:28;10.10;99.90
46492;DHT22;32206;51.446;6.792;2023-04-23T05:02:58;10.10;99.90
46492;DHT22;32206;51.446;6.792;2023-04-23T05:05:25;10.10;99.90
46492;DHT22;32206;51.446;6.792;2023-04-23T05:07:51;10.20;99.90
46492;DHT22;32206;51.446;6.792;2023-04-23T05:10:19;10.30;99.90
46492;DHT22;32206;51.446;6.792;2023-04-23T05:12:45;10.30;99.90
46492;DHT22;32206;51.446;6.792;2023-04-23T05:15:12;10.40;99.90
46492;DHT22;32206;51.446;6.792;2023-04-23T05:17:38;10.50;99.90
46492;DHT22;32206;51.446;6.792;2023-04-23T05:20:26;10.50;99.90
46492;DHT22;32206;51.446;6.792;2023-04-23T05:22:52;10.60;99.90
46492;DHT22;32206;51.446;6.792;2023-04-23T05:25:18;10.60;99.90
46492;DHT22;32206;51.446;6.792;2023-04-23T05:27:43;10.70;99.90
46492;DHT22;32206;51.446;6.792;2023-04-23T05:30:10;10.70;99.90
46492;DHT22;32206;51.446;6.792;2023-04-23T05:39:19;10.80;99.90
46492;DHT22;32206;51.446;6.792;2023-04-23T05:45:20;10.90;99.90
46492;DHT22;32206;51.446;6.792;2023-04-23T05:47:46;11.00;99.90
46492;DHT22;32206;51.446;6.792;2023-04-23T05:53:37;11.00;99.90
46492;DHT22;32206;51.446;6.792;2023-04-23T05:56:03;11.10;99.90
46492;DHT22;32206;51.446;6.792;2023-04-23T06:01:51;11.20;99.90
46492;DHT22;32206;51.446;6.792;2023-04-23T06:04:17;11.20;99.90
46492;DHT22;32206;51.446;6.792;2023-04-23T06:06:42;11.20;99.90
46492;DHT22;32206;51.446;6.792;2023-04-23T06:09:08;11.20;99.90
46492;DHT22;32206;51.446;6.792;2023-04-23T06:11:35;11.30;99.90
46492;DHT22;32206;51.446;6.792;2023-04-23T06:14:01;11.30;99.90
46492;DHT22;32206;51.446;6.792;2023-04-23T06:16:27;11.40;99.90
46492;DHT22;32206;51.446;6.792;2023-04-23T06:18:53;11.40;99.90
46492;DHT22;32206;51.446;6.792;2023-04-23T06:24:43;11.50;99.90
46492;DHT22;32206;51.446;6.792;2023-04-23T06:27:08;11.50;99.90
46492;DHT22;32206;51.446;6.792;2023-04-23T06:29:34;11.50;99.90
46492;DHT22;32206;51.446;6.792;2023-04-23T06:32:02;11.60;99.90
46492;DHT22;32206;51.446;6.792;2023-04-23T06:34:29;11.60;99.90
46492;DHT22;32206;51.446;6.792;2023-04-23T06:36:55;11.60;99.90
46492;DHT22;32206;51.446;6.792;2023-04-23T06:39:20;11.70;99.90
46492;DHT22;32206;51.446;6.792;2023-04-23T06:41:46;11.70;99.90
46492;DHT22;32206;51.446;6.792;2023-04-23T06:44:12;11.70;99.90
46492;DHT22;32206;51.446;6.792;2023-04-23T06:46:37;11.80;99.90
46492;DHT22;32206;51.446;6.792;2023-04-23T06:49:03;11.80;99.90
46492;DHT22;32206;51.446;6.792;2023-04-23T06:54:51;11.90;99.90
46492;DHT22;32206;51.446;6.792;2023-04-23T06:57:17;12.00;99.90
46492;DHT22;32206;51.446;6.792;2023-04-23T06:59:42;12.00;99.90
46492;DHT22;32206;51.446;6.792;2023-04-23T07:02:08;12.10;99.90
46492;DHT22;32206;51.446;6.792;2023-04-23T07:11:18;12.30;99.90
46492;DHT22;32206;51.446;6.792;2023-04-23T07:17:06;12.60;99.90
46492;DHT22;32206;51.446;6.792;2023-04-23T07:19:32;12.80;99.90
46492;DHT22;32206;51.446;6.792;2023-04-23T07:21:57;12.90;99.90
46492;DHT22;32206;51.446;6.792;2023-04-23T07:24:23;13.00;99.90
46492;DHT22;32206;51.446;6.792;2023-04-23T07:26:50;13.20;99.90
46492;DHT22;32206;51.446;6.792;2023-04-23T07:29:16;13.20;99.90
46492;DHT22;32206;51.446;6.792;2023-04-23T07:31:42;13.40;99.90
46492;DHT22;32206;51.446;6.792;2023-04-23T07:34:08;13.50;99.90
46492;DHT22;32206;51.446;6.792;2023-04-23T07:36:34;13.60;99.90
46492;DHT22;32206;51.446;6.792;2023-04-23T07:39:00;13.70;99.90
46492;DHT22;32206;51.446;6.792;2023-04-23T07:41:26;13.80;99.90
46492;DHT22;32206;51.446;6.792;2023-04-23T07:43:51;13.90;99.90
46492;DHT22;32206;51.446;6.792;2023-04-23T07:46:17;13.90;99.90
46492;DHT22;32206;51.446;6.792;2023-04-23T07:48:44;14.00;99.90
46492;DHT22;32206;51.446;6.792;2023-04-23T07:54:32;14.20;90.10
46492;DHT22;32206;51.446;6.792;2023-04-23T07:56:57;14.30;74.50
46492;DHT22;32206;51.446;6.792;2023-04-23T08:06:10;14.50;73.40
46492;DHT22;32206;51.446;6.792;2023-04-23T08:08:36;14.60;57.20
46492;DHT22;32206;51.446;6.792;2023-04-23T08:11:03;14.60;55.10
46492;DHT22;32206;51.446;6.792;2023-04-23T08:20:07;14.80;42.70
46492;DHT22;32206;51.446;6.792;2023-04-23T08:25:55;15.00;41.10
46492;DHT22;32206;51.446;6.792;2023-04-23T08:28:21;15.10;21.20
46492;DHT22;32206;51.446;6.792;2023-04-23T08:30:47;15.20;12.30
46492;DHT22;32206;51.446;6.792;2023-04-23T08:33:13;15.30;21.70
46492;DHT22;32206;51.446;6.792;2023-04-23T08:35:39;15.40;14.20
46492;DHT22;32206;51.446;6.792;2023-04-23T08:38:04;15.50;9.30
46492;DHT22;32206;51.446;6.792;2023-04-23T08:40:31;15.60;1.00
46492;DHT22;32206;51.446;6.792;2023-04-23T08:43:01;15.70;1.00
46492;DHT22;32206;51.446;6.792;2023-04-23T08:45:28;15.60;1.00
46492;DHT22;32206;51.446;6.792;2023-04-23T08:48:00;15.70;1.00
46492;DHT22;32206;51.446;6.792;2023-04-23T08:50:28;15.90;1.00
46492;DHT22;32206;51.446;6.792;2023-04-23T08:52:55;16.00;1.00
46492;DHT22;32206;51.446;6.792;2023-04-23T08:55:22;16.00;1.00
46492;DHT22;32206;51.446;6.792;2023-04-23T08:57:49;16.20;1.00
46492;DHT22;32206;51.446;6.792;2023-04-23T09:03:36;16.40;1.00
46492;DHT22;32206;51.446;6.792;2023-04-23T09:06:03;16.50;1.00
46492;DHT22;32206;51.446;6.792;2023-04-23T09:08:30;16.50;1.00
46492;DHT22;32206;51.446;6.792;2023-04-23T09:11:00;16.40;1.00
46492;DHT22;32206;51.446;6.792;2023-04-23T09:20:11;16.60;1.00
46492;DHT22;32206;51.446;6.792;2023-04-23T09:25:59;16.80;1.00
46492;DHT22;32206;51.446;6.792;2023-04-23T09:28:34;16.90;1.00
46492;DHT22;32206;51.446;6.792;2023-04-23T09:34:23;17.30;1.00
46492;DHT22;32206;51.446;6.792;2023-04-23T09:36:51;17.70;99.90
46492;DHT22;32206;51.446;6.792;2023-04-23T09:39:26;17.80;1.00
46492;DHT22;32206;51.446;6.792;2023-04-23T09:41:52;17.90;1.00
46492;DHT22;32206;51.446;6.792;2023-04-23T09:44:20;17.90;1.00
46492;DHT22;32206;51.446;6.792;2023-04-23T09:46:49;17.80;1.00
46492;DHT22;32206;51.446;6.792;2023-04-23T09:49:15;17.60;1.00
46492;DHT22;32206;51.446;6.792;2023-04-23T10:01:47;18.10;99.90
46492;DHT22;32206;51.446;6.792;2023-04-23T10:04:24;18.30;99.90
46492;DHT22;32206;51.446;6.792;2023-04-23T10:06:58;18.20;1.00
46492;DHT22;32206;51.446;6.792;2023-04-23T10:12:27;18.10;1.00
46492;DHT22;32206;51.446;6.792;2023-04-23T10:14:52;18.40;79.70
46492;DHT22;32206;51.446;6.792;2023-04-23T10:17:21;18.70;1.00
46492;DHT22;32206;51.446;6.792;2023-04-23T10:19:47;18.70;99.90
46492;DHT22;32206;51.446;6.792;2023-04-23T10:25:38;18.70;99.90
46492;DHT22;32206;51.446;6.792;2023-04-23T10:28:05;18.60;63.80
46492;DHT22;32206;51.446;6.792;2023-04-23T10:34:05;18.40;1.00
46492;DHT22;32206;51.446;6.792;2023-04-23T10:36:32;18.40;1.00
46492;DHT22;32206;51.446;6.792;2023-04-23T10:42:21;18.80;1.00
46492;DHT22;32206;51.446;6.792;2023-04-23T10:44:55;19.20;1.00
46492;DHT22;32206;51.446;6.792;2023-04-23T10:47:22;19.40;99.90
46492;DHT22;32206;51.446;6.792;2023-04-23T10:49:48;19.50;99.90
46492;DHT22;32206;51.446;6.792;2023-04-23T10:52:15;19.40;99.90
46492;DHT22;32206;51.446;6.792;2023-04-23T10:54:42;19.20;99.90
46492;DHT22;32206;51.446;6.792;2023-04-23T10:57:09;19.20;99.90
46492;DHT22;32206;51.446;6.792;2023-04-23T10:59:39;19.00;99.90
46492;DHT22;32206;51.446;6.792;2023-04-23T11:02:07;19.20;99.90
46492;DHT22;32206;51.446;6.792;2023-04-23T11:04:35;19.40;96.20
46492;DHT22;32206;51.446;6.792;2023-04-23T11:07:05;19.50;99.90
46492;DHT22;32206;51.446;6.792;2023-04-23T11:09:41;19.50;7.20
46492;DHT22;32206;51.446;6.792;2023-04-23T11:14:50;19.70;27.20
46492;DHT22;32206;51.446;6.792;2023-04-23T11:17:17;19.80;87.80
46492;DHT22;32206;51.446;6.792;2023-04-23T11:25:56;19.50;19.00
46492;DHT22;32206;51.446;6.792;2023-04-23T11:28:22;19.60;81.70
46492;DHT22;32206;51.446;6.792;2023-04-23T11:34:10;19.50;1.00
46492;DHT22;32206;51.446;6.792;2023-04-23T11:36:36;19.50;1.00
46492;DHT22;32206;51.446;6.792;2023-04-23T11:39:02;19.50;1.00
46492;DHT22;32206;51.446;6.792;2023-04-23T11:41:28;19.50;1.00
46492;DHT22;32206;51.446;6.792;2023-04-23T11:50:40;19.20;1.00
46492;DHT22;32206;51.446;6.792;2023-04-23T11:53:08;19.30;1.00
46492;DHT22;32206;51.446;6.792;2023-04-23T11:55:34;19.20;1.00
46492;DHT22;32206;51.446;6.792;2023-04-23T11:58:00;19.10;99.90
46492;DHT22;32206;51.446;6.792;2023-04-23T12:00:27;19.00;99.90
46492;DHT22;32206;51.446;6.792;2023-04-23T12:02:53;18.90;99.90
46492;DHT22;32206;51.446;6.792;2023-04-23T12:05:42;18.90;1.00
46492;DHT22;32206;51.446;6.792;2023-04-23T12:08:11;19.20;1.00
46492;DHT22;32206;51.446;6.792;2023-04-23T12:16:00;19.50;99.90
46492;DHT22;32206;51.446;6.792;2023-04-23T12:18:33;19.60;99.90
46492;DHT22;32206;51.446;6.792;2023-04-23T12:21:12;19.70;99.90
46492;DHT22;32206;51.446;6.792;2023-04-23T12:26:55;19.80;99.90
46492;DHT22;32206;51.446;6.792;2023-04-23T12:29:23;19.80;99.90
46492;DHT22;32206;51.446;6.792;2023-04-23T12:31:50;19.70;99.90
46492;DHT22;32206;51.446;6.792;2023-04-23T12:34:19;19.70;99.90
46492;DHT22;32206;51.446;6.792;2023-04-23T12:36:51;19.90;99.90
46492;DHT22;32206;51.446;6.792;2023-04-23T12:42:38;20.20;99.90
46492;DHT22;32206;51.446;6.792;2023-04-23T12:45:06;20.40;99.90
46492;DHT22;32206;51.446;6.792;2023-04-23T12:47:32;20.40;99.90
46492;DHT22;32206;51.446;6.792;2023-04-23T12:49:58;20.60;99.90
46492;DHT22;32206;51.446;6.792;2023-04-23T12:52:25;20.90;99.90
46492;DHT22;32206;51.446;6.792;2023-04-23T12:58:16;21.00;99.90
46492;DHT22;32206;51.446;6.792;2023-04-23T13:00:42;21.10;99.90
46492;DHT22;32206;51.446;6.792;2023-04-23T13:06:30;22.00;90.20
46492;DHT22;32206;51.446;6.792;2023-04-23T13:08:55;22.00;1.00
46492;DHT22;32206;51.446;6.792;2023-04-23T13:11:21;21.70;1.00
46492;DHT22;32206;51.446;6.792;2023-04-23T13:13:47;21.80;1.00
46492;DHT22;32206;51.446;6.792;2023-04-23T13:16:13;21.90;1.00
46492;DHT22;32206;51.446;6.792;2023-04-23T13:18:39;21.90;1.00
46492;DHT22;32206;51.446;6.792;2023-04-23T13:21:05;21.90;1.00
46492;DHT22;32206;51.446;6.792;2023-04-23T13:23:30;21.80;1.00
46492;DHT22;32206;51.446;6.792;2023-04-23T13:25:56;22.00;1.00
46492;DHT22;32206;51.446;6.792;2023-04-23T13:28:22;22.10;1.00
46492;DHT22;32206;51.446;6.792;2023-04-23T13:30:47;21.70;1.00
46492;DHT22;32206;51.446;6.792;2023-04-23T13:33:13;21.50;1.00
46492;DHT22;32206;51.446;6.792;2023-04-23T13:35:39;21.40;1.00
46492;DHT22;32206;51.446;6.792;2023-04-23T13:38:05;21.30;1.00
46492;DHT22;32206;51.446;6.792;2023-04-23T13:43:53;20.90;1.00
46492;DHT22;32206;51.446;6.792;2023-04-23T13:46:19;20.90;1.00
46492;DHT22;32206;51.446;6.792;2023-04-23T13:48:45;20.90;1.00
46492;DHT22;32206;51.446;6.792;2023-04-23T13:51:10;20.80;1.00
46492;DHT22;32206;51.446;6.792;2023-04-23T13:53:36;20.80;1.00
46492;DHT22;32206;51.446;6.792;2023-04-23T13:59:24;20.80;1.00
46492;DHT22;32206;51.446;6.792;2023-04-23T14:05:12;20.60;1.00
46492;DHT22;32206;51.446;6.792;2023-04-23T14:07:39;20.50;1.00
46492;DHT22;32206;51.446;6.792;2023-04-23T14:13:58;20.40;1.00
46492;DHT22;32206;51.446;6.792;2023-04-23T14:16:25;20.30;1.00
46492;DHT22;32206;51.446;6.792;2023-04-23T14:22:13;20.10;1.00
46492;DHT22;32206;51.446;6.792;2023-04-23T14:24:48;20.00;1.00
46492;DHT22;32206;51.446;6.792;2023-04-23T14:27:14;19.90;1.00
46492;DHT22;32206;51.446;6.792;2023-04-23T14:38:54;19.70;1.00
46492;DHT22;32206;51.446;6.792;2023-04-23T14:41:20;19.60;1.00
46492;DHT22;32206;51.446;6.792;2023-04-23T14:43:46;19.50;1.00
46492;DHT22;32206;51.446;6.792;2023-04-23T14:46:11;19.50;1.00
46492;DHT22;32206;51.446;6.792;2023-04-23T14:48:37;19.50;1.00
46492;DHT22;32206;51.446;6.792;2023-04-23T14:51:02;19.40;1.00
46492;DHT22;32206;51.446;6.792;2023-04-23T14:53:28;19.30;1.00
46492;DHT22;32206;51.446;6.792;2023-04-23T14:56:25;19.10;1.00
46492;DHT22;32206;51.446;6.792;2023-04-23T14:58:51;18.90;1.00
46492;DHT22;32206;51.446;6.792;2023-04-23T15:01:17;18.90;1.00
46492;DHT22;32206;51.446;6.792;2023-04-23T15:07:04;18.90;1.00
46492;DHT22;32206;51.446;6.792;2023-04-23T15:09:30;18.90;1.00
46492;DHT22;32206;51.446;6.792;2023-04-23T15:24:35;18.50;1.00
46492;DHT22;32206;51.446;6.792;2023-04-23T15:27:00;18.40;1.00
46492;DHT22;32206;51.446;6.792;2023-04-23T15:29:27;18.40;1.00
46492;DHT22;32206;51.446;6.792;2023-04-23T15:31:52;18.30;1.00
46492;DHT22;32206;51.446;6.792;2023-04-23T15:34:23;18.20;1.00
46492;DHT22;32206;51.446;6.792;2023-04-23T15:36:49;18.00;1.00
46492;DHT22;32206;51.446;6.792;2023-04-23T15:39:15;17.80;44.30
46492;DHT22;32206;51.446;6.792;2023-04-23T15:41:41;17.60;99.90
46492;DHT22;32206;51.446;6.792;2023-04-23T15:44:09;17.50;99.90
46492;DHT22;32206;51.446;6.792;2023-04-23T15:46:36;17.30;99.90
46492;DHT22;32206;51.446;6.792;2023-04-23T15:49:01;17.10;1.00
46492;DHT22;32206;51.446;6.792;2023-04-23T15:51:29;17.00;29.50
46492;DHT22;32206;51.446;6.792;2023-04-23T15:53:56;16.90;99.90
46492;DHT22;32206;51.446;6.792;2023-04-23T16:00:09;16.60;99.90
46492;DHT22;32206;51.446;6.792;2023-04-23T16:02:35;16.40;1.00
46492;DHT22;32206;51.446;6.792;2023-04-23T16:05:02;16.10;1.00
46492;DHT22;32206;51.446;6.792;2023-04-23T16:07:27;16.00;26.00
46492;DHT22;32206;51.446;6.792;2023-04-23T16:09:53;15.80;40.90
46492;DHT22;32206;51.446;6.792;2023-04-23T16:12:19;15.40;67.90
46492;DHT22;32206;51.446;6.792;2023-04-23T16:14:44;15.30;85.30
46492;DHT22;32206;51.446;6.792;2023-04-23T16:17:10;15.20;91.80
46492;DHT22;32206;51.446;6.792;2023-04-23T16:19:36;15.20;99.30
46492;DHT22;32206;51.446;6.792;2023-04-23T16:22:02;15.00;98.60
46492;DHT22;32206;51.446;6.792;2023-04-23T16:24:27;14.90;99.90
46492;DHT22;32206;51.446;6.792;2023-04-23T16:26:53;14.80;99.90
46492;DHT22;32206;51.446;6.792;2023-04-23T16:29:19;14.80;99.90
46492;DHT22;32206;51.446;6.792;2023-04-23T16:31:45;14.80;99.90
46492;DHT22;32206;51.446;6.792;2023-04-23T16:38:07;14.80;99.90
46492;DHT22;32206;51.446;6.792;2023-04-23T16:40:35;14.90;99.90
46492;DHT22;32206;51.446;6.792;2023-04-23T16:46:25;14.70;99.90
46492;DHT22;32206;51.446;6.792;2023-04-23T16:55:38;14.50;99.90
46492;DHT22;32206;51.446;6.792;2023-04-23T16:58:04;14.60;99.90
46492;DHT22;32206;51.446;6.792;2023-04-23T17:00:30;14.60;99.90
46492;DHT22;32206;51.446;6.792;2023-04-23T17:02:56;14.50;99.90
46492;DHT22;32206;51.446;6.792;2023-04-23T17:05:37;14.50;99.90
46492;DHT22;32206;51.446;6.792;2023-04-23T17:08:03;14.40;99.90
46492;DHT22;32206;51.446;6.792;2023-04-23T17:10:29;14.40;99.90
46492;DHT22;32206;51.446;6.792;2023-04-23T17:12:55;14.30;99.90
46492;DHT22;32206;51.446;6.792;2023-04-23T17:15:21;14.20;99.90
46492;DHT22;32206;51.446;6.792;2023-04-23T17:17:47;14.20;99.90
46492;DHT22;32206;51.446;6.792;2023-04-23T17:20:13;14.20;99.90
46492;DHT22;32206;51.446;6.792;2023-04-23T17:22:38;14.10;99.90
46492;DHT22;32206;51.446;6.792;2023-04-23T17:25:05;14.00;99.90
46492;DHT22;32206;51.446;6.792;2023-04-23T17:27:31;13.90;99.90
46492;DHT22;32206;51.446;6.792;2023-04-23T17:29:56;13.80;99.90
46492;DHT22;32206;51.446;6.792;2023-04-23T17:32:22;13.70;99.90
46492;DHT22;32206;51.446;6.792;2023-04-23T17:38:48;13.70;99.90
46492;DHT22;32206;51.446;6.792;2023-04-23T17:41:14;13.70;99.90
46492;DHT22;32206;51.446;6.792;2023-04-23T17:47:03;13.90;99.90
46492;DHT22;32206;51.446;6.792;2023-04-23T17:56:15;13.80;99.90
46492;DHT22;32206;51.446;6.792;2023-04-23T17:58:41;13.70;99.90
46492;DHT22;32206;51.446;6.792;2023-04-23T18:01:07;13.60;99.90
46492;DHT22;32206;51.446;6.792;2023-04-23T18:03:34;13.60;99.90
46492;DHT22;32206;51.446;6.792;2023-04-23T18:06:00;13.50;99.90
46492;DHT22;32206;51.446;6.792;2023-04-23T18:08:26;13.50;99.90
46492;DHT22;32206;51.446;6.792;2023-04-23T18:10:52;13.40;99.90
46492;DHT22;32206;51.446;6.792;2023-04-23T18:16:46;13.50;99.90
46492;DHT22;32206;51.446;6.792;2023-04-23T18:19:11;13.40;99.90
46492;DHT22;32206;51.446;6.792;2023-04-23T18:21:37;13.40;99.90
46492;DHT22;32206;51.446;6.792;2023-04-23T18:24:03;13.30;99.90
46492;DHT22;32206;51.446;6.792;2023-04-23T18:26:29;13.30;99.90
46492;DHT22;32206;51.446;6.792;2023-04-23T18:32:17;13.20;99.90
46492;DHT22;32206;51.446;6.792;2023-04-23T18:34:42;13.20;99.90
46492;DHT22;32206;51.446;6.792;2023-04-23T18:37:10;13.20;99.90
46492;DHT22;32206;51.446;6.792;2023-04-23T18:39:36;13.10;99.90
46492;DHT22;32206;51.446;6.792;2023-04-23T18:42:02;13.10;99.90
46492;DHT22;32206;51.446;6.792;2023-04-23T18:47:56;13.10;99.90
46492;DHT22;32206;51.446;6.792;2023-04-23T18:50:43;13.10;99.90
46492;DHT22;32206;51.446;6.792;2023-04-23T18:53:12;13.10;99.90
46492;DHT22;32206;51.446;6.792;2023-04-23T19:02:20;13.00;99.90
46492;DHT22;32206;51.446;6.792;2023-04-23T19:04:45;12.90;99.90
46492;DHT22;32206;51.446;6.792;2023-04-23T19:07:11;12.90;99.90
46492;DHT22;32206;51.446;6.792;2023-04-23T19:09:37;12.90;99.90
46492;DHT22;32206;51.446;6.792;2023-04-23T19:12:03;12.90;99.90
46492;DHT22;32206;51.446;6.792;2023-04-23T19:17:51;12.90;99.90
46492;DHT22;32206;51.446;6.792;2023-04-23T19:27:01;12.90;99.90
46492;DHT22;32206;51.446;6.792;2023-04-23T19:29:27;12.90;99.90
46492;DHT22;32206;51.446;6.792;2023-04-23T19:31:53;12.90;99.90
46492;DHT22;32206;51.446;6.792;2023-04-23T19:34:19;12.90;99.90
46492;DHT22;32206;51.446;6.792;2023-04-23T19:40:11;12.90;99.90
46492;DHT22;32206;51.446;6.792;2023-04-23T19:42:36;12.90;99.90
46492;DHT22;32206;51.446;6.792;2023-04-23T19:45:03;12.90;99.90
46492;DHT22;32206;51.446;6.792;2023-04-23T19:47:29;12.90;99.90
46492;DHT22;32206;51.446;6.792;2023-04-23T19:49:56;12.90;99.90
46492;DHT22;32206;51.446;6.792;2023-04-23T19:52:25;12.90;99.90
46492;DHT22;32206;51.446;6.792;2023-04-23T19:54:51;12.80;99.90
46492;DHT22;32206;51.446;6.792;2023-04-23T19:57:17;12.90;99.90
46492;DHT22;32206;51.446;6.792;2023-04-23T19:59:47;12.90;99.90
46492;DHT22;32206;51.446;6.792;2023-04-23T20:02:14;12.90;99.90
46492;DHT22;32206;51.446;6.792;2023-04-23T20:04:40;12.90;99.90
46492;DHT22;32206;51.446;6.792;2023-04-23T20:07:06;12.90;99.90
46492;DHT22;32206;51.446;6.792;2023-04-23T20:09:32;12.90;96.40
46492;DHT22;32206;51.446;6.792;2023-04-23T20:11:58;12.90;97.50
46492;DHT22;32206;51.446;6.792;2023-04-23T20:17:47;12.90;96.50
46492;DHT22;32206;51.446;6.792;2023-04-23T20:20:13;12.90;93.60
46492;DHT22;32206;51.446;6.792;2023-04-23T20:26:01;12.90;86.90
46492;DHT22;32206;51.446;6.792;2023-04-23T20:28:27;12.90;66.50
46492;DHT22;32206;51.446;6.792;2023-04-23T20:30:52;12.80;29.90
46492;DHT22;32206;51.446;6.792;2023-04-23T20:33:18;12.80;26.60
46492;DHT22;32206;51.446;6.792;2023-04-23T20:42:28;12.70;1.00
46492;DHT22;32206;51.446;6.792;2023-04-23T20:44:54;12.60;1.00
46492;DHT22;32206;51.446;6.792;2023-04-23T20:47:20;12.40;13.80
46492;DHT22;32206;51.446;6.792;2023-04-23T20:49:45;12.30;48.60
46492;DHT22;32206;51.446;6.792;2023-04-23T20:55:52;12.00;81.10
46492;DHT22;32206;51.446;6.792;2023-04-23T20:58:18;11.90;90.20